Time;durP1;ratioP1;P1;durP2;ratioP2;P2;SDS_P1;SDS_P2;PMS_P1;PMS_P2;Temp;Humidity;BMP_temperature;BMP_pressure;BME280_temperature;BME280_humidity;BME280_pressure;Samples;Min_cycle;Max_cycle;Signal;HPM_P1;HPM_P2
2022/03/31 00:00:37;;;;;;;28.62;17.23;;;;;;;9.19;60.49;100035.55;1757760;80;20967;-74
2022/03/31 00:03:07;;;;;;;28.77;15.25;;;;;;;9.16;60.70;100030.97;1757787;81;20894;-73
2022/03/31 00:05:35;;;;;;;29.27;16.93;;;;;;;9.13;60.93;100032.01;1757893;81;20905;-74
2022/03/31 00:08:08;;;;;;;27.00;15.20;;;;;;;9.11;60.96;100033.87;1757876;81;21473;-73
2022/03/31 00:10:43;;;;;;;25.57;15.98;;;;;;;9.11;61.11;100022.11;1758166;81;20996;-74
2022/03/31 00:13:16;;;;;;;26.57;16.20;;;;;;;9.12;61.28;100013.34;1758027;81;21266;-73
2022/03/31 00:15:43;;;;;;;30.60;16.73;;;;;;;9.10;61.52;100017.36;1758288;81;21030;-73
2022/03/31 00:18:11;;;;;;;28.77;17.40;;;;;;;9.04;61.86;100012.50;1757943;80;20849;-73
2022/03/31 00:20:38;;;;;;;25.95;16.32;;;;;;;8.97;61.94;100018.23;1757952;81;20959;-73
2022/03/31 00:23:08;;;;;;;26.10;16.75;;;;;;;8.91;61.98;100015.52;1758438;81;21386;-72
2022/03/31 00:25:35;;;;;;;26.87;16.93;;;;;;;8.82;62.33;100007.78;1758900;81;21334;-73
2022/03/31 00:28:03;;;;;;;27.65;17.23;;;;;;;8.71;62.50;100007.61;1759586;81;21023;-71
2022/03/31 00:30:32;;;;;;;29.55;16.57;;;;;;;8.61;62.89;100008.66;1759887;80;20868;-72
2022/03/31 00:33:00;;;;;;;32.60;16.02;;;;;;;8.52;63.23;100017.08;1758911;81;20924;-73
2022/03/31 00:35:28;;;;;;;29.10;16.50;;;;;;;8.46;63.44;100020.05;1758195;81;21415;-73
2022/03/31 00:37:55;;;;;;;27.00;15.93;;;;;;;8.41;63.66;100016.89;1758084;80;21209;-73
2022/03/31 00:40:22;;;;;;;26.77;16.77;;;;;;;8.38;63.81;100013.11;1758052;81;20860;-73
2022/03/31 00:42:52;;;;;;;31.40;18.00;;;;;;;8.36;63.91;100018.89;1758071;81;20841;-73
2022/03/31 00:45:23;;;;;;;37.28;19.73;;;;;;;8.36;63.85;100017.58;1758182;81;21438;-73
2022/03/31 00:47:50;;;;;;;28.02;19.02;;;;;;;8.36;63.92;100017.58;1758039;81;20931;-73
2022/03/31 00:50:19;;;;;;;29.15;17.85;;;;;;;8.36;63.95;100022.37;1753159;81;21152;-74
2022/03/31 00:52:46;;;;;;;29.90;17.70;;;;;;;8.36;63.99;100029.34;1744538;82;20928;-73
2022/03/31 00:55:16;;;;;;;36.60;19.12;;;;;;;8.34;64.04;100037.73;1744727;82;21359;-74
2022/03/31 00:57:43;;;;;;;29.80;18.42;;;;;;;8.30;64.06;100025.34;1744523;82;20971;-73
2022/03/31 01:00:11;;;;;;;32.55;17.90;;;;;;;8.26;64.12;100029.06;1744706;80;20940;-73
2022/03/31 01:02:39;;;;;;;23.90;17.05;;;;;;;8.23;64.24;100024.87;1744607;82;22134;-72
2022/03/31 01:05:09;;;;;;;31.27;16.70;;;;;;;8.22;64.37;100024.95;1744622;82;20916;-72
2022/03/31 01:07:37;;;;;;;23.92;15.43;;;;;;;8.21;64.48;100028.03;1744578;81;20893;-74
2022/03/31 01:10:06;;;;;;;30.52;15.53;;;;;;;8.22;64.54;100034.92;1744576;82;20932;-73
2022/03/31 01:12:35;;;;;;;26.45;17.07;;;;;;;8.23;64.71;100030.09;1744694;81;20889;-73
2022/03/31 01:15:17;;;;;;;25.90;17.73;;;;;;;8.24;64.72;100029.62;1744708;81;21015;-72
2022/03/31 01:17:46;;;;;;;30.68;17.75;;;;;;;8.27;64.76;100036.81;1744531;82;20936;-74
2022/03/31 01:20:17;;;;;;;26.12;15.43;;;;;;;8.29;64.85;100032.78;1744590;82;20976;-73
2022/03/31 01:22:44;;;;;;;26.77;16.40;;;;;;;8.28;65.14;100028.51;1744819;82;20976;-72
2022/03/31 01:25:11;;;;;;;22.27;14.55;;;;;;;8.25;65.50;100027.40;1744733;80;20877;-73
2022/03/31 01:27:43;;;;;;;30.23;17.95;;;;;;;8.21;65.92;100029.81;1744611;82;21262;-73
2022/03/31 01:30:16;;;;;;;24.85;14.35;;;;;;;8.19;66.03;100022.06;1744814;80;20921;-73
2022/03/31 01:32:44;;;;;;;24.98;12.98;;;;;;;8.19;66.19;100031.20;1744778;81;20969;-73
2022/03/31 01:35:12;;;;;;;23.00;13.43;;;;;;;8.23;66.41;100025.34;1744474;82;20932;-73
2022/03/31 01:37:40;;;;;;;23.67;12.25;;;;;;;8.22;66.59;100022.34;1744752;82;20889;-72
2022/03/31 01:40:07;;;;;;;29.90;12.88;;;;;;;8.20;66.81;100018.97;1744772;82;21248;-72
2022/03/31 01:42:36;;;;;;;25.65;13.22;;;;;;;8.19;67.03;100014.22;1744586;81;20930;-73
2022/03/31 01:45:05;;;;;;;24.90;12.95;;;;;;;8.21;67.09;100014.14;1744651;82;20870;-72
2022/03/31 01:47:32;;;;;;;24.43;13.00;;;;;;;8.21;67.30;100008.45;1744540;82;20862;-72
2022/03/31 01:50:00;;;;;;;18.30;13.35;;;;;;;8.23;67.28;100011.81;1744540;81;21379;-72
2022/03/31 01:52:30;;;;;;;24.72;12.93;;;;;;;8.18;67.35;100000.80;1744646;82;21530;-72
2022/03/31 01:54:56;;;;;;;27.82;13.05;;;;;;;8.15;67.45;100006.67;1744501;82;20984;-72
2022/03/31 01:57:23;;;;;;;25.43;12.40;;;;;;;8.14;67.61;100008.45;1744511;82;21489;-72
2022/03/31 01:59:49;;;;;;;30.15;15.63;;;;;;;8.16;67.79;100003.11;1744775;82;20932;-71
2022/03/31 02:02:18;;;;;;;25.12;11.85;;;;;;;8.19;68.10;100008.17;1744535;80;20880;-72
2022/03/31 02:04:44;;;;;;;25.08;11.80;;;;;;;8.19;68.43;100002.94;1744896;82;21268;-72
2022/03/31 02:07:12;;;;;;;32.35;14.50;;;;;;;8.17;68.89;99997.80;1744565;82;20928;-71
2022/03/31 02:09:40;;;;;;;21.48;10.58;;;;;;;8.16;69.22;99990.05;1744601;82;21055;-72
2022/03/31 02:12:09;;;;;;;23.70;10.88;;;;;;;8.17;69.61;99988.66;1744525;82;20948;-71
2022/03/31 02:14:37;;;;;;;23.18;11.10;;;;;;;8.19;69.75;99982.88;1744808;82;20969;-72
2022/03/31 02:17:11;;;;;;;21.20;11.22;;;;;;;8.21;69.98;99992.77;1744522;82;21274;-71
2022/03/31 02:19:38;;;;;;;18.35;10.70;;;;;;;8.26;70.14;99999.02;1744581;82;20920;-71
2022/03/31 02:22:05;;;;;;;26.12;12.37;;;;;;;8.29;70.33;99997.52;1744513;82;20976;-72
2022/03/31 02:24:35;;;;;;;22.85;12.47;;;;;;;8.31;70.57;99998.27;1744475;81;20940;-72
2022/03/31 02:27:03;;;;;;;23.35;11.48;;;;;;;8.30;70.89;99999.22;1744621;80;20914;-72
2022/03/31 02:29:31;;;;;;;25.95;13.68;;;;;;;8.26;71.03;99998.55;1744515;82;21798;-72
2022/03/31 02:31:58;;;;;;;27.70;12.37;;;;;;;8.26;71.42;99994.63;1744399;80;20924;-72
2022/03/31 02:34:26;;;;;;;22.85;11.97;;;;;;;8.26;71.54;100005.08;1744516;82;20921;-71
2022/03/31 02:36:54;;;;;;;21.50;11.08;;;;;;;8.26;71.58;99998.55;1744654;81;20976;-73
2022/03/31 02:39:21;;;;;;;27.45;10.88;;;;;;;8.27;71.88;99996.33;1744620;82;20869;-72
2022/03/31 02:41:47;;;;;;;20.50;11.33;;;;;;;8.30;71.99;99992.69;1744662;81;21873;-71
2022/03/31 02:44:16;;;;;;;24.85;12.05;;;;;;;8.30;72.39;99992.69;1744519;81;20921;-72
2022/03/31 02:46:43;;;;;;;21.87;10.88;;;;;;;8.30;72.59;99990.91;1744597;82;20940;-74
2022/03/31 02:49:10;;;;;;;23.10;11.48;;;;;;;8.32;72.72;99998.66;1744546;82;21110;-72
2022/03/31 02:51:37;;;;;;;24.87;11.22;;;;;;;8.34;72.86;99989.40;1744422;82;20944;-73
2022/03/31 02:56:50;;;;;;;24.00;11.63;;;;;;;8.38;73.09;99989.15;1744559;82;20925;-73
2022/03/31 02:59:17;;;;;;;35.48;13.50;;;;;;;8.41;73.22;99986.84;1744609;81;20944;-73
2022/03/31 03:01:44;;;;;;;30.72;12.55;;;;;;;8.43;73.24;99987.59;1744557;82;20881;-71
2022/03/31 03:04:12;;;;;;;28.67;13.38;;;;;;;8.44;73.20;99986.64;1744640;82;21295;-71
2022/03/31 03:06:39;;;;;;;21.60;12.18;;;;;;;8.47;73.28;99989.92;1744657;82;21852;-72
2022/03/31 03:09:07;;;;;;;24.85;13.05;;;;;;;8.48;73.37;99986.83;1744493;82;20972;-76
2022/03/31 03:11:34;;;;;;;23.00;11.78;;;;;;;8.49;73.33;99988.50;1744476;82;21011;-72
2022/03/31 03:14:01;;;;;;;24.57;12.53;;;;;;;8.51;73.43;99984.02;1744444;81;20909;-72
2022/03/31 03:16:29;;;;;;;26.27;12.05;;;;;;;8.50;73.54;99987.58;1744616;81;20924;-73
2022/03/31 03:18:57;;;;;;;20.05;11.90;;;;;;;8.49;73.53;99991.11;1744603;81;20936;-72
2022/03/31 03:21:24;;;;;;;28.05;12.93;;;;;;;8.47;73.64;99982.52;1744530;82;21008;-72
2022/03/31 03:23:51;;;;;;;26.60;12.40;;;;;;;8.44;73.92;99983.56;1744569;81;20893;-72
2022/03/31 03:26:17;;;;;;;20.77;11.70;;;;;;;8.41;74.08;99980.31;1744686;81;20916;-72
2022/03/31 03:28:46;;;;;;;23.92;12.33;;;;;;;8.40;74.31;99974.66;1744579;81;20969;-74
2022/03/31 03:31:13;;;;;;;21.80;11.88;;;;;;;8.39;74.38;99975.14;1744492;82;21213;-73
2022/03/31 03:33:40;;;;;;;26.00;14.38;;;;;;;8.38;74.40;99966.95;1744772;81;21372;-73
2022/03/31 03:36:10;;;;;;;22.82;12.75;;;;;;;8.39;74.51;99971.70;1744476;82;20912;-73
2022/03/31 03:38:36;;;;;;;25.05;11.55;;;;;;;8.39;74.60;99971.22;1744637;82;20928;-73
2022/03/31 03:41:04;;;;;;;26.85;12.65;;;;;;;8.40;74.66;99974.22;1744485;81;20979;-73
2022/03/31 03:43:31;;;;;;;24.40;12.85;;;;;;;8.40;74.80;99961.60;1744469;82;21310;-73
2022/03/31 03:45:58;;;;;;;28.62;13.22;;;;;;;8.38;74.94;99966.08;1744870;82;20897;-72
2022/03/31 03:48:25;;;;;;;24.05;14.10;;;;;;;8.37;74.94;99963.11;1744884;82;20991;-72
2022/03/31 03:50:53;;;;;;;34.75;14.83;;;;;;;8.36;75.32;99962.72;1748226;81;22207;-71
2022/03/31 03:53:20;;;;;;;35.05;16.12;;;;;;;8.35;75.44;99957.97;1758908;80;20892;-71
2022/03/31 03:55:47;;;;;;;25.12;13.62;;;;;;;8.33;75.57;99979.90;1757951;81;21111;-72
2022/03/31 03:58:14;;;;;;;29.67;15.15;;;;;;;8.33;75.80;99972.89;1758023;81;20972;-73
2022/03/31 04:00:40;;;;;;;32.90;15.75;;;;;;;8.34;75.81;99961.97;1757798;81;20931;-72
2022/03/31 04:05:26;;;;;;;26.82;13.88;;;;;;;8.41;75.84;99959.41;1816434;79;22577;-72
2022/03/31 04:07:54;;;;;;;28.77;15.95;;;;;;;8.37;75.93;99970.47;1789519;80;20884;-73
2022/03/31 04:10:20;;;;;;;26.90;14.40;;;;;;;8.38;75.97;99963.47;1789957;80;21230;-75
2022/03/31 04:12:49;;;;;;;28.95;16.02;;;;;;;8.40;75.92;99962.47;1789478;80;20927;-74
2022/03/31 04:15:16;;;;;;;30.90;15.55;;;;;;;8.42;75.97;99969.75;1789535;80;20836;-73
2022/03/31 04:17:43;;;;;;;24.00;13.85;;;;;;;8.44;76.04;99967.88;1789484;80;20955;-72
2022/03/31 04:20:11;;;;;;;25.00;15.20;;;;;;;8.46;76.12;99967.32;1789495;80;20927;-72
2022/03/31 04:22:40;;;;;;;27.45;14.70;;;;;;;8.47;76.05;99974.24;1789480;80;21492;-73
2022/03/31 04:25:10;;;;;;;30.75;14.28;;;;;;;8.53;76.09;99961.25;1789367;79;21612;-73
2022/03/31 04:27:39;;;;;;;31.87;15.43;;;;;;;8.59;75.97;99959.56;1789718;80;20971;-73
2022/03/31 04:30:10;;;;;;;36.40;15.53;;;;;;;8.63;75.87;99964.98;1789519;80;21468;-73
2022/03/31 04:32:37;;;;;;;25.10;15.80;;;;;;;8.67;75.80;99962.55;1789454;80;20860;-73
2022/03/31 04:35:06;;;;;;;22.55;13.18;;;;;;;8.72;75.71;99951.80;1789397;80;21242;-73
2022/03/31 04:37:35;;;;;;;26.35;14.45;;;;;;;8.77;75.62;99952.34;1789457;80;20892;-73
2022/03/31 04:40:05;;;;;;;24.90;14.00;;;;;;;8.82;75.42;99941.59;1789564;80;20936;-72
2022/03/31 04:42:33;;;;;;;24.40;14.00;;;;;;;8.88;75.26;99940.73;1789424;80;21006;-74
2022/03/31 04:45:02;;;;;;;26.57;13.93;;;;;;;8.91;75.05;99943.17;1789556;80;20947;-73
2022/03/31 04:47:30;;;;;;;24.45;13.85;;;;;;;8.96;74.88;99941.56;1789709;80;21261;-73
2022/03/31 04:49:57;;;;;;;24.60;14.07;;;;;;;9.00;74.72;99947.42;1789419;80;20876;-73
2022/03/31 04:52:25;;;;;;;24.15;11.78;;;;;;;9.04;74.53;99950.21;1789339;80;20872;-74
2022/03/31 04:54:51;;;;;;;19.80;13.53;;;;;;;9.07;74.35;99948.25;1789419;80;21446;-73
2022/03/31 04:57:20;;;;;;;27.95;13.08;;;;;;;9.09;74.18;99956.84;1789476;80;20955;-73
2022/03/31 04:59:48;;;;;;;20.50;13.65;;;;;;;9.12;74.05;99956.63;1789399;80;21269;-72
2022/03/31 05:02:14;;;;;;;31.33;16.12;;;;;;;9.15;73.95;99979.13;1789463;80;20883;-73
2022/03/31 05:04:41;;;;;;;29.32;14.47;;;;;;;9.17;73.85;99964.66;1781465;80;21370;-74
2022/03/31 05:07:10;;;;;;;20.45;12.85;;;;;;;9.20;73.73;99953.50;1775765;80;20980;-73
2022/03/31 05:09:38;;;;;;;24.85;12.58;;;;;;;9.24;73.61;99961.53;1776188;80;21444;-73
2022/03/31 05:12:06;;;;;;;28.30;13.68;;;;;;;9.28;73.46;99975.26;1775931;80;21246;-72
2022/03/31 05:14:33;;;;;;;26.27;13.53;;;;;;;9.32;73.36;99998.98;1775797;80;20936;-73
2022/03/31 05:17:01;;;;;;;22.00;11.93;;;;;;;9.37;73.19;99986.43;1775296;80;20904;-73
2022/03/31 05:19:27;;;;;;;21.87;12.10;;;;;;;9.41;73.02;99984.47;1775273;80;20904;-73
2022/03/31 05:21:55;;;;;;;17.55;10.95;;;;;;;9.47;72.82;99982.73;1775378;80;20892;-73
2022/03/31 05:24:23;;;;;;;23.87;11.75;;;;;;;9.50;72.62;99979.45;1775348;80;21545;-75
2022/03/31 05:26:53;;;;;;;27.55;12.18;;;;;;;9.55;72.45;99994.85;1775232;80;20940;-73
2022/03/31 05:29:21;;;;;;;20.48;11.45;;;;;;;9.60;72.27;99984.08;1775302;80;21082;-73
2022/03/31 05:31:48;;;;;;;22.62;11.78;;;;;;;9.66;72.05;99990.22;1775331;80;20901;-72
2022/03/31 05:34:15;;;;;;;21.50;12.43;;;;;;;9.72;71.81;99999.81;1775323;80;20932;-73
2022/03/31 05:36:42;;;;;;;16.87;11.93;;;;;;;9.79;71.60;100007.27;1775241;80;21288;-74
2022/03/31 05:39:09;;;;;;;22.00;12.35;;;;;;;9.84;71.32;100000.77;1775271;80;21458;-73
2022/03/31 05:41:37;;;;;;;18.40;11.45;;;;;;;9.92;71.08;100010.27;1775317;80;20881;-73
2022/03/31 05:44:04;;;;;;;21.90;11.73;;;;;;;9.98;70.82;100009.00;1775396;80;20889;-74
2022/03/31 05:46:32;;;;;;;25.08;13.35;;;;;;;10.04;70.47;100006.45;1775335;80;20904;-73
2022/03/31 05:48:59;;;;;;;24.55;11.40;;;;;;;10.08;70.20;100018.41;1775343;80;21153;-72
2022/03/31 05:51:25;;;;;;;17.70;11.73;;;;;;;10.13;69.98;100009.75;1775261;80;21455;-72
2022/03/31 05:53:52;;;;;;;22.27;13.05;;;;;;;10.16;69.76;100015.64;1775706;80;20942;-72
2022/03/31 05:56:19;;;;;;;19.87;11.53;;;;;;;10.21;69.53;99999.60;1775189;80;21242;-73
2022/03/31 05:58:46;;;;;;;18.45;11.85;;;;;;;10.28;69.24;100004.78;1775251;80;20897;-72
2022/03/31 06:01:15;;;;;;;24.37;11.35;;;;;;;10.34;68.89;100012.74;1775259;80;20927;-74
2022/03/31 06:03:43;;;;;;;28.55;12.18;;;;;;;10.39;68.63;100014.56;1775128;80;21003;-75
2022/03/31 06:06:10;;;;;;;20.52;10.78;;;;;;;10.42;68.28;100022.20;1775316;80;20932;-74
2022/03/31 06:08:37;;;;;;;31.27;12.65;;;;;;;10.47;67.86;100021.88;1775302;80;20940;-73
2022/03/31 06:11:04;;;;;;;23.98;12.33;;;;;;;10.50;67.76;100019.07;1775820;80;20931;-74
2022/03/31 06:13:35;;;;;;;24.10;11.97;;;;;;;10.53;67.50;100020.98;1775270;80;21514;-72
2022/03/31 06:16:03;;;;;;;25.20;11.40;;;;;;;10.56;67.28;100011.62;1775247;80;20944;-73
2022/03/31 06:18:31;;;;;;;25.77;10.95;;;;;;;10.61;67.18;100015.70;1775344;80;20987;-74
2022/03/31 06:20:59;;;;;;;17.55;10.48;;;;;;;10.66;66.87;100005.72;1775192;80;21018;-72
2022/03/31 06:23:28;;;;;;;32.23;12.13;;;;;;;10.73;66.57;100006.48;1775342;80;20928;-74
2022/03/31 06:25:57;;;;;;;18.15;10.68;;;;;;;10.79;66.32;100007.37;1775694;80;21195;-73
2022/03/31 06:28:28;;;;;;;23.32;10.60;;;;;;;10.86;66.05;100002.52;1753349;80;21394;-73
2022/03/31 06:30:54;;;;;;;18.07;9.90;;;;;;;10.92;65.74;100009.97;1775107;80;20983;-74
2022/03/31 06:33:21;;;;;;;24.85;11.33;;;;;;;10.97;65.56;99997.83;1775624;80;20979;-73
2022/03/31 06:35:49;;;;;;;22.75;10.08;;;;;;;11.03;65.37;99989.97;1775591;80;20888;-72
2022/03/31 06:38:17;;;;;;;15.05;8.88;;;;;;;11.09;65.06;99996.09;1775329;80;21165;-74
2022/03/31 06:41:06;;;;;;;20.12;9.65;;;;;;;11.15;64.97;100004.84;1775288;80;20877;-75
2022/03/31 06:43:13;;;;;;;20.80;8.75;;;;;;;11.23;64.72;99988.53;1774957;80;21443;-74
2022/03/31 06:45:40;;;;;;;19.42;9.50;;;;;;;11.31;64.36;99994.07;1775263;80;21015;-73
2022/03/31 06:48:08;;;;;;;24.55;10.63;;;;;;;11.38;64.10;99985.65;1775482;80;20904;-73
2022/03/31 06:50:35;;;;;;;21.50;9.30;;;;;;;11.46;63.75;99992.11;1775322;80;21418;-74
2022/03/31 06:53:03;;;;;;;22.48;9.98;;;;;;;11.52;63.53;99994.30;1775253;80;20928;-74
2022/03/31 06:55:30;;;;;;;15.88;8.03;;;;;;;11.57;63.30;99986.42;1775217;80;20998;-72
2022/03/31 06:57:59;;;;;;;27.60;8.85;;;;;;;11.61;62.83;99987.88;1775335;80;20979;-75
2022/03/31 07:00:26;;;;;;;17.00;9.08;;;;;;;11.64;62.55;99976.78;1775478;80;20924;-75
2022/03/31 07:02:56;;;;;;;22.40;8.78;;;;;;;11.67;62.49;99982.66;1775246;80;22297;-75
2022/03/31 07:05:24;;;;;;;17.37;8.30;;;;;;;11.73;62.30;99974.28;1779927;80;20936;-73
2022/03/31 07:07:53;;;;;;;21.48;9.40;;;;;;;11.78;62.15;99977.42;1755984;80;20971;-75
2022/03/31 07:10:21;;;;;;;17.65;8.40;;;;;;;11.89;61.74;99992.38;1784254;80;20932;-72
2022/03/31 07:12:50;;;;;;;16.85;8.73;;;;;;;12.00;61.45;100004.72;1785186;80;21069;-74
2022/03/31 07:15:19;;;;;;;15.00;8.00;;;;;;;12.16;61.02;100003.92;1771258;80;21235;-71
2022/03/31 07:17:48;;;;;;;19.92;8.20;;;;;;;12.37;60.41;100003.22;1755828;80;20908;-74
2022/03/31 07:20:16;;;;;;;18.77;9.15;;;;;;;12.64;59.53;99992.34;1784026;80;20895;-72
2022/03/31 07:22:47;;;;;;;16.05;7.95;;;;;;;12.94;58.57;100007.95;1783815;80;20964;-72
2022/03/31 07:25:16;;;;;;;21.33;7.67;;;;;;;13.13;57.94;100004.21;1784179;80;21385;-73
2022/03/31 07:27:44;;;;;;;15.35;6.62;;;;;;;13.30;57.55;99987.58;1783939;80;21223;-73
2022/03/31 07:30:13;;;;;;;27.58;7.30;;;;;;;13.51;56.81;100001.60;1783846;80;20971;-73
2022/03/31 07:32:53;;;;;;;19.02;6.95;;;;;;;13.74;56.60;99992.27;1784145;80;20924;-73
2022/03/31 07:35:29;;;;;;;15.30;6.20;;;;;;;13.91;55.31;100000.92;1769034;80;20920;-74
2022/03/31 07:37:58;;;;;;;21.93;7.60;;;;;;;14.06;54.92;100000.13;1783996;80;21362;-74
2022/03/31 07:40:27;;;;;;;10.55;5.60;;;;;;;14.14;54.72;100009.55;1784086;80;21119;-74
2022/03/31 07:42:56;;;;;;;11.18;6.45;;;;;;;14.20;54.34;100012.96;1783780;80;20844;-75
2022/03/31 07:45:25;;;;;;;13.83;6.90;;;;;;;14.26;54.25;100015.58;1783817;80;20928;-74
2022/03/31 07:47:52;;;;;;;19.65;6.20;;;;;;;14.32;53.88;100009.78;1755946;80;20888;-74
2022/03/31 07:50:20;;;;;;;18.15;6.80;;;;;;;14.35;53.89;100015.27;1783808;80;20967;-73
2022/03/31 07:52:50;;;;;;;18.15;7.22;;;;;;;14.40;53.66;100011.26;1784209;80;21207;-72
2022/03/31 07:55:19;;;;;;;20.82;6.55;;;;;;;14.67;53.21;100010.73;1783935;80;21338;-73
2022/03/31 07:57:48;;;;;;;21.62;7.30;;;;;;;14.67;53.21;100010.73;1783699;80;20924;-74
2022/03/31 08:00:17;;;;;;;20.85;6.62;;;;;;;14.76;52.73;99999.83;1783805;80;20947;-74
2022/03/31 08:02:51;;;;;;;17.55;6.58;;;;;;;14.82;51.95;100006.39;1784123;80;21299;-74
2022/03/31 08:05:23;;;;;;;13.93;6.80;;;;;;;14.82;51.95;100006.39;1780134;80;21155;-74
2022/03/31 08:07:52;;;;;;;15.20;6.65;;;;;;;14.80;52.26;100009.65;1775258;80;20980;-75
2022/03/31 08:10:22;;;;;;;13.08;6.70;;;;;;;14.84;52.03;100001.32;1775192;80;20948;-74
2022/03/31 08:12:54;;;;;;;11.93;5.70;;;;;;;14.84;52.03;100001.32;1754312;80;20999;-74
2022/03/31 08:15:23;;;;;;;13.05;5.62;;;;;;;14.87;51.70;100011.63;1775344;80;20940;-72
2022/03/31 08:17:50;;;;;;;17.77;6.97;;;;;;;15.02;51.55;100006.78;1775637;80;21886;-74
2022/03/31 08:20:17;;;;;;;14.33;6.17;;;;;;;15.25;50.83;99998.16;1775176;80;20849;-75
2022/03/31 08:22:45;;;;;;;16.85;6.08;;;;;;;15.62;50.18;99999.27;1775362;80;20880;-73
2022/03/31 08:25:17;;;;;;;16.67;6.50;;;;;;;16.04;48.73;100001.12;1775149;80;20944;-74
2022/03/31 08:27:47;;;;;;;16.93;6.75;;;;;;;16.45;47.67;100008.33;1754539;80;20853;-73
2022/03/31 08:30:18;;;;;;;18.67;6.05;;;;;;;16.80;46.66;99996.20;1775215;80;21181;-74
2022/03/31 08:32:46;;;;;;;19.35;6.08;;;;;;;17.18;45.64;99996.94;1775643;80;20923;-73
2022/03/31 08:35:15;;;;;;;18.67;5.37;;;;;;;17.58;44.93;99982.40;1753330;80;20884;-74
2022/03/31 08:37:47;;;;;;;13.40;6.03;;;;;;;17.96;44.02;99990.53;1775189;80;20885;-74
2022/03/31 08:40:15;;;;;;;18.90;5.53;;;;;;;18.22;43.40;99979.89;1772933;80;21382;-76
2022/03/31 08:42:48;;;;;;;14.33;6.12;;;;;;;18.35;42.93;99982.62;1775268;80;21140;-75
2022/03/31 08:45:20;;;;;;;15.75;5.85;;;;;;;18.45;42.94;99997.92;1754830;80;20893;-75
2022/03/31 08:47:50;;;;;;;23.35;6.75;;;;;;;18.56;42.69;100013.58;1754493;80;20860;-75
2022/03/31 08:50:21;;;;;;;14.23;5.62;;;;;;;18.71;42.35;99993.08;1753775;80;20948;-74
2022/03/31 08:52:50;;;;;;;24.67;5.97;;;;;;;18.86;41.86;99995.99;1775325;80;20979;-75
2022/03/31 08:55:20;;;;;;;15.95;5.85;;;;;;;19.03;41.50;99987.91;1775464;80;20944;-75
2022/03/31 08:57:52;;;;;;;14.47;6.70;;;;;;;19.20;41.22;99983.44;1744883;80;20999;-72
2022/03/31 09:00:24;;;;;;;13.58;5.40;;;;;;;19.33;40.66;99980.30;1775399;80;20936;-74
2022/03/31 09:03:07;;;;;;;14.28;5.22;;;;;;;19.45;40.63;99982.98;1775539;80;20889;-73
2022/03/31 09:05:49;;;;;;;15.53;5.80;;;;;;;19.63;40.45;99973.98;1775214;80;21334;-74
2022/03/31 09:08:14;;;;;;;11.35;6.12;;;;;;;19.81;40.33;99961.39;1775022;80;21838;-75
2022/03/31 09:10:53;;;;;;;25.08;6.40;;;;;;;19.97;39.99;99955.20;1775247;80;20948;-73
2022/03/31 09:13:28;;;;;;;12.95;5.72;;;;;;;20.01;39.31;99949.02;1775296;80;20967;-74
2022/03/31 09:16:01;;;;;;;12.82;5.45;;;;;;;19.94;39.37;99946.72;1752802;80;21017;-74
2022/03/31 09:18:31;;;;;;;;;;;;;;;19.98;39.12;99932.90;1777999;80;20943;-73
2022/03/31 09:21:03;;;;;;;18.35;5.80;;;;;;;20.18;38.09;99947.98;1775677;80;21239;-75
2022/03/31 09:23:33;;;;;;;25.30;6.37;;;;;;;20.34;37.75;99938.29;1775267;80;21402;-74
2022/03/31 09:26:12;;;;;;;19.42;5.80;;;;;;;20.58;37.07;99909.42;1774590;80;21374;-74
2022/03/31 09:28:43;;;;;;;20.43;5.17;;;;;;;20.81;36.59;99920.95;1775376;80;20912;-74
2022/03/31 09:31:12;;;;;;;18.42;4.95;;;;;;;20.97;35.43;99912.53;1775416;80;20936;-76
2022/03/31 09:33:48;;;;;;;14.38;5.15;;;;;;;20.93;34.98;99904.05;1753848;80;21267;-75
2022/03/31 09:36:22;;;;;;;18.17;5.90;;;;;;;20.88;34.80;99913.91;1753838;80;20976;-74
2022/03/31 09:38:59;;;;;;;16.07;5.53;;;;;;;20.85;34.98;99894.77;1775287;80;21689;-75
2022/03/31 09:41:30;;;;;;;14.50;6.33;;;;;;;20.81;34.65;99912.96;1775303;80;21064;-74
2022/03/31 09:44:03;;;;;;;17.67;5.75;;;;;;;20.70;34.67;99902.70;1775621;80;20944;-73
2022/03/31 09:46:40;;;;;;;20.85;5.72;;;;;;;20.60;34.44;99905.56;1754297;80;21889;-74
2022/03/31 09:49:22;;;;;;;20.45;5.58;;;;;;;20.59;34.89;99893.27;1775237;80;20908;-74
2022/03/31 09:52:02;;;;;;;22.80;6.58;;;;;;;20.62;34.92;99888.91;1775227;80;21374;-73
2022/03/31 09:54:35;;;;;;;18.87;6.78;;;;;;;20.64;34.57;99900.22;1775458;80;21414;-75
2022/03/31 09:57:07;;;;;;;19.85;6.17;;;;;;;20.72;34.57;99892.70;1775382;80;20909;-75
2022/03/31 09:59:38;;;;;;;18.12;5.67;;;;;;;20.91;34.43;99892.22;1775629;80;21924;-75
2022/03/31 10:02:06;;;;;;;10.95;4.75;;;;;;;21.10;33.72;99886.94;1775178;80;20896;-76
2022/03/31 10:04:37;;;;;;;21.10;5.67;;;;;;;21.21;33.03;99884.83;1775215;80;20865;-74
2022/03/31 10:07:05;;;;;;;19.12;5.80;;;;;;;21.18;32.87;99872.69;1782715;80;21026;-75
2022/03/31 10:09:36;;;;;;;14.78;3.90;;;;;;;21.09;33.09;99861.77;1770653;80;21416;-74
2022/03/31 10:12:24;;;;;;;20.25;6.20;;;;;;;21.00;32.98;99873.52;1753229;80;21157;-74
2022/03/31 10:15:01;;;;;;;20.20;7.45;;;;;;;20.89;32.69;99882.75;1783469;80;20923;-73
2022/03/31 10:17:31;;;;;;;36.05;10.35;;;;;;;20.75;32.88;99871.53;1753373;80;20960;-73
2022/03/31 10:20:16;;;;;;;21.23;8.33;;;;;;;20.69;33.34;99877.87;1783562;80;20962;-73
2022/03/31 10:25:45;;;;;;;24.07;5.58;;;;;;;20.99;33.51;99863.36;1766822;80;21341;-76
2022/03/31 10:28:14;;;;;;;24.67;5.45;;;;;;;21.14;32.60;99863.90;1783422;80;21450;-73
2022/03/31 10:31:07;;;;;;;25.62;5.72;;;;;;;21.18;31.81;99866.53;1783653;80;20892;-75
2022/03/31 10:33:42;;;;;;;12.58;5.00;;;;;;;21.09;31.74;99871.10;1760203;80;20923;-75
2022/03/31 10:36:16;;;;;;;25.77;7.12;;;;;;;20.97;32.04;99873.88;1783501;80;20939;-76
2022/03/31 10:39:02;;;;;;;18.12;6.00;;;;;;;20.81;32.02;99885.45;1783633;80;21197;-75
2022/03/31 10:41:30;;;;;;;16.48;6.67;;;;;;;;;;1783524;80;21339;-73
2022/03/31 10:43:58;;;;;;;16.85;5.67;;;;;;;20.61;32.46;99887.74;1783572;80;21393;-74
2022/03/31 10:46:28;;;;;;;24.35;6.90;;;;;;;;;;1783447;80;20896;-74
2022/03/31 10:49:02;;;;;;;19.37;5.22;;;;;;;20.72;32.42;99839.41;1783824;80;20931;-74
2022/03/31 10:51:35;;;;;;;11.63;4.60;;;;;;;20.85;31.75;99849.45;1782569;80;21150;-72
2022/03/31 10:54:04;;;;;;;21.12;7.08;;;;;;;21.02;31.71;99844.33;1783713;80;20892;-72
2022/03/31 10:56:33;;;;;;;22.98;6.12;;;;;;;21.08;31.31;99856.13;1753684;80;20927;-73
2022/03/31 10:59:02;;;;;;;20.97;5.92;;;;;;;20.96;31.11;99833.04;1783376;80;20939;-73
2022/03/31 11:01:41;;;;;;;22.75;6.72;;;;;;;20.89;31.01;99833.44;1783522;80;21441;-73
2022/03/31 11:04:10;;;;;;;16.60;4.83;;;;;;;20.80;30.83;99822.01;1783440;80;21241;-74
2022/03/31 11:06:57;;;;;;;17.30;4.22;;;;;;;20.85;31.03;99817.00;1778539;80;20860;-73
2022/03/31 11:09:32;;;;;;;18.27;4.85;;;;;;;21.10;30.85;99805.61;1775476;80;20932;-74
2022/03/31 11:12:01;;;;;;;22.20;4.83;;;;;;;21.38;29.59;99813.00;1775172;80;20947;-73
2022/03/31 11:14:29;;;;;;;16.80;5.25;;;;;;;21.64;29.47;99807.77;1775379;80;20908;-73
2022/03/31 11:16:56;;;;;;;22.70;5.12;;;;;;;21.87;29.16;99791.13;1775261;80;21140;-73
2022/03/31 11:19:23;;;;;;;21.68;4.83;;;;;;;22.14;28.62;99795.46;1775289;80;21526;-73
2022/03/31 11:21:52;;;;;;;35.75;5.47;;;;;;;22.34;28.16;99784.55;1753827;80;21016;-72
2022/03/31 11:24:25;;;;;;;38.35;5.33;;;;;;;22.46;27.67;99792.88;1775461;80;20924;-75
2022/03/31 11:26:55;;;;;;;21.75;4.83;;;;;;;22.53;27.92;99778.25;1775260;80;20936;-73
2022/03/31 11:29:26;;;;;;;32.58;6.00;;;;;;;22.62;28.05;99787.80;1775486;80;21427;-75
2022/03/31 11:31:54;;;;;;;28.57;6.17;;;;;;;22.79;27.84;99789.71;1744218;80;21003;-74
2022/03/31 11:34:28;;;;;;;23.57;5.15;;;;;;;22.89;27.63;99804.89;1775500;80;20987;-75
2022/03/31 11:36:55;;;;;;;30.10;6.03;;;;;;;22.96;27.19;99795.59;1775719;80;20908;-73
2022/03/31 11:39:34;;;;;;;40.35;6.00;;;;;;;22.92;26.87;99785.81;1753973;80;20936;-74